sensor_id;sensor_type;location;lat;lon;timestamp;P1;durP1;ratioP1;P2;durP2;ratioP2
37855;SDS011;23694;43.274;26.924;2023-03-23T00:01:27;29.03;;;18.70;;
37855;SDS011;23694;43.274;26.924;2023-03-23T00:03:56;25.17;;;17.47;;
37855;SDS011;23694;43.274;26.924;2023-03-23T00:06:27;27.70;;;17.57;;
37855;SDS011;23694;43.274;26.924;2023-03-23T00:09:00;26.90;;;18.07;;
37855;SDS011;23694;43.274;26.924;2023-03-23T00:11:28;27.47;;;17.27;;
37855;SDS011;23694;43.274;26.924;2023-03-23T00:13:56;27.90;;;16.90;;
37855;SDS011;23694;43.274;26.924;2023-03-23T00:16:24;27.47;;;16.87;;
37855;SDS011;23694;43.274;26.924;2023-03-23T00:18:58;28.30;;;17.47;;
37855;SDS011;23694;43.274;26.924;2023-03-23T00:21:28;30.00;;;18.27;;
37855;SDS011;23694;43.274;26.924;2023-03-23T00:26:29;27.43;;;16.70;;
37855;SDS011;23694;43.274;26.924;2023-03-23T00:29:05;28.57;;;17.57;;
37855;SDS011;23694;43.274;26.924;2023-03-23T00:31:33;27.70;;;18.10;;
37855;SDS011;23694;43.274;26.924;2023-03-23T00:34:01;29.73;;;18.30;;
37855;SDS011;23694;43.274;26.924;2023-03-23T00:36:30;27.27;;;17.33;;
37855;SDS011;23694;43.274;26.924;2023-03-23T00:38:57;29.30;;;18.87;;
37855;SDS011;23694;43.274;26.924;2023-03-23T00:41:25;27.97;;;18.53;;
37855;SDS011;23694;43.274;26.924;2023-03-23T00:43:53;29.33;;;17.00;;
37855;SDS011;23694;43.274;26.924;2023-03-23T00:46:23;25.13;;;16.80;;
37855;SDS011;23694;43.274;26.924;2023-03-23T00:48:50;24.90;;;16.77;;
37855;SDS011;23694;43.274;26.924;2023-03-23T00:51:17;23.10;;;15.97;;
37855;SDS011;23694;43.274;26.924;2023-03-23T00:53:44;24.23;;;15.37;;
37855;SDS011;23694;43.274;26.924;2023-03-23T00:56:11;22.17;;;14.80;;
37855;SDS011;23694;43.274;26.924;2023-03-23T00:58:37;23.40;;;15.77;;
37855;SDS011;23694;43.274;26.924;2023-03-23T01:01:03;21.97;;;15.50;;
37855;SDS011;23694;43.274;26.924;2023-03-23T01:03:30;22.47;;;16.57;;
37855;SDS011;23694;43.274;26.924;2023-03-23T01:05:56;24.57;;;16.10;;
37855;SDS011;23694;43.274;26.924;2023-03-23T01:08:23;26.37;;;16.63;;
37855;SDS011;23694;43.274;26.924;2023-03-23T01:10:50;23.27;;;15.87;;
37855;SDS011;23694;43.274;26.924;2023-03-23T01:13:16;25.37;;;16.03;;
37855;SDS011;23694;43.274;26.924;2023-03-23T01:15:42;24.33;;;16.57;;
37855;SDS011;23694;43.274;26.924;2023-03-23T01:18:08;24.27;;;16.47;;
37855;SDS011;23694;43.274;26.924;2023-03-23T01:20:36;25.47;;;16.63;;
37855;SDS011;23694;43.274;26.924;2023-03-23T01:23:02;22.43;;;15.23;;
37855;SDS011;23694;43.274;26.924;2023-03-23T01:25:29;22.70;;;15.63;;
37855;SDS011;23694;43.274;26.924;2023-03-23T01:27:57;24.57;;;15.57;;
37855;SDS011;23694;43.274;26.924;2023-03-23T01:30:24;23.77;;;16.00;;
37855;SDS011;23694;43.274;26.924;2023-03-23T01:32:52;25.00;;;15.63;;
37855;SDS011;23694;43.274;26.924;2023-03-23T01:35:18;26.17;;;16.40;;
37855;SDS011;23694;43.274;26.924;2023-03-23T01:37:44;23.30;;;16.37;;
37855;SDS011;23694;43.274;26.924;2023-03-23T01:40:10;24.23;;;16.00;;
37855;SDS011;23694;43.274;26.924;2023-03-23T01:42:37;21.20;;;15.77;;
37855;SDS011;23694;43.274;26.924;2023-03-23T01:48:05;22.47;;;15.53;;
37855;SDS011;23694;43.274;26.924;2023-03-23T01:50:37;22.83;;;16.00;;
37855;SDS011;23694;43.274;26.924;2023-03-23T01:53:10;22.53;;;15.90;;
37855;SDS011;23694;43.274;26.924;2023-03-23T01:55:37;23.83;;;15.23;;
37855;SDS011;23694;43.274;26.924;2023-03-23T01:58:06;23.80;;;16.13;;
37855;SDS011;23694;43.274;26.924;2023-03-23T02:00:34;25.13;;;17.23;;
37855;SDS011;23694;43.274;26.924;2023-03-23T02:03:01;24.83;;;16.87;;
37855;SDS011;23694;43.274;26.924;2023-03-23T02:05:30;27.07;;;17.27;;
37855;SDS011;23694;43.274;26.924;2023-03-23T02:08:02;24.00;;;16.70;;
37855;SDS011;23694;43.274;26.924;2023-03-23T02:10:31;21.57;;;15.40;;
37855;SDS011;23694;43.274;26.924;2023-03-23T02:12:58;26.43;;;15.97;;
37855;SDS011;23694;43.274;26.924;2023-03-23T02:15:27;23.70;;;15.70;;
37855;SDS011;23694;43.274;26.924;2023-03-23T02:18:39;24.17;;;15.80;;
37855;SDS011;23694;43.274;26.924;2023-03-23T02:26:55;24.87;;;15.63;;
37855;SDS011;23694;43.274;26.924;2023-03-23T02:32:08;24.03;;;15.57;;
37855;SDS011;23694;43.274;26.924;2023-03-23T02:34:41;25.20;;;15.97;;
37855;SDS011;23694;43.274;26.924;2023-03-23T02:40:24;23.73;;;15.03;;
37855;SDS011;23694;43.274;26.924;2023-03-23T02:42:56;24.90;;;15.50;;
37855;SDS011;23694;43.274;26.924;2023-03-23T02:45:24;20.67;;;14.07;;
37855;SDS011;23694;43.274;26.924;2023-03-23T02:47:54;21.20;;;13.83;;
37855;SDS011;23694;43.274;26.924;2023-03-23T02:50:22;22.73;;;14.87;;
37855;SDS011;23694;43.274;26.924;2023-03-23T02:52:52;22.83;;;14.53;;
37855;SDS011;23694;43.274;26.924;2023-03-23T02:55:21;21.77;;;13.97;;
37855;SDS011;23694;43.274;26.924;2023-03-23T02:57:54;22.30;;;14.83;;
37855;SDS011;23694;43.274;26.924;2023-03-23T03:00:20;21.70;;;13.67;;
37855;SDS011;23694;43.274;26.924;2023-03-23T03:02:48;22.93;;;15.00;;
37855;SDS011;23694;43.274;26.924;2023-03-23T03:13:29;24.33;;;14.23;;
37855;SDS011;23694;43.274;26.924;2023-03-23T03:19:14;24.50;;;15.10;;
37855;SDS011;23694;43.274;26.924;2023-03-23T03:21:54;26.87;;;14.83;;
37855;SDS011;23694;43.274;26.924;2023-03-23T03:24:23;25.63;;;15.27;;
37855;SDS011;23694;43.274;26.924;2023-03-23T03:26:53;25.50;;;14.93;;
37855;SDS011;23694;43.274;26.924;2023-03-23T03:29:25;25.73;;;15.57;;
37855;SDS011;23694;43.274;26.924;2023-03-23T03:31:55;25.00;;;15.63;;
37855;SDS011;23694;43.274;26.924;2023-03-23T03:34:24;26.63;;;16.13;;
37855;SDS011;23694;43.274;26.924;2023-03-23T03:36:51;27.73;;;16.23;;
37855;SDS011;23694;43.274;26.924;2023-03-23T03:39:19;28.07;;;16.40;;
37855;SDS011;23694;43.274;26.924;2023-03-23T03:41:47;30.83;;;18.97;;
37855;SDS011;23694;43.274;26.924;2023-03-23T03:44:13;25.07;;;16.33;;
37855;SDS011;23694;43.274;26.924;2023-03-23T03:46:41;52.07;;;34.83;;
37855;SDS011;23694;43.274;26.924;2023-03-23T03:49:08;24.30;;;16.60;;
37855;SDS011;23694;43.274;26.924;2023-03-23T03:51:39;27.53;;;17.13;;
37855;SDS011;23694;43.274;26.924;2023-03-23T03:54:06;27.13;;;15.80;;
37855;SDS011;23694;43.274;26.924;2023-03-23T03:56:32;24.07;;;14.03;;
37855;SDS011;23694;43.274;26.924;2023-03-23T03:59:02;24.93;;;15.13;;
37855;SDS011;23694;43.274;26.924;2023-03-23T04:01:28;25.60;;;16.03;;
37855;SDS011;23694;43.274;26.924;2023-03-23T04:03:54;30.53;;;19.33;;
37855;SDS011;23694;43.274;26.924;2023-03-23T04:06:21;22.13;;;15.10;;
37855;SDS011;23694;43.274;26.924;2023-03-23T04:08:48;23.23;;;15.63;;
37855;SDS011;23694;43.274;26.924;2023-03-23T04:11:14;26.93;;;16.47;;
37855;SDS011;23694;43.274;26.924;2023-03-23T04:13:40;25.90;;;16.87;;
37855;SDS011;23694;43.274;26.924;2023-03-23T04:16:07;28.77;;;18.23;;
37855;SDS011;23694;43.274;26.924;2023-03-23T04:18:33;30.30;;;18.57;;
37855;SDS011;23694;43.274;26.924;2023-03-23T04:21:00;32.37;;;20.53;;
37855;SDS011;23694;43.274;26.924;2023-03-23T04:23:29;26.90;;;18.93;;
37855;SDS011;23694;43.274;26.924;2023-03-23T04:25:59;29.37;;;17.63;;
37855;SDS011;23694;43.274;26.924;2023-03-23T04:28:25;29.53;;;18.60;;
37855;SDS011;23694;43.274;26.924;2023-03-23T04:30:53;28.80;;;18.97;;
37855;SDS011;23694;43.274;26.924;2023-03-23T04:33:23;29.70;;;19.33;;
37855;SDS011;23694;43.274;26.924;2023-03-23T04:35:52;30.70;;;20.10;;
37855;SDS011;23694;43.274;26.924;2023-03-23T04:38:19;33.30;;;20.70;;
37855;SDS011;23694;43.274;26.924;2023-03-23T04:40:47;30.97;;;20.43;;
37855;SDS011;23694;43.274;26.924;2023-03-23T04:43:17;31.50;;;20.23;;
37855;SDS011;23694;43.274;26.924;2023-03-23T04:45:47;28.40;;;19.37;;
37855;SDS011;23694;43.274;26.924;2023-03-23T04:48:25;29.77;;;18.87;;
37855;SDS011;23694;43.274;26.924;2023-03-23T04:50:53;28.00;;;18.85;;
37855;SDS011;23694;43.274;26.924;2023-03-23T04:53:20;31.30;;;19.10;;
37855;SDS011;23694;43.274;26.924;2023-03-23T04:55:47;26.53;;;18.77;;
37855;SDS011;23694;43.274;26.924;2023-03-23T04:58:15;30.77;;;19.13;;
37855;SDS011;23694;43.274;26.924;2023-03-23T05:00:41;31.57;;;18.93;;
37855;SDS011;23694;43.274;26.924;2023-03-23T05:03:18;29.83;;;19.33;;
37855;SDS011;23694;43.274;26.924;2023-03-23T05:05:45;32.63;;;20.70;;
37855;SDS011;23694;43.274;26.924;2023-03-23T05:10:49;32.67;;;21.80;;
37855;SDS011;23694;43.274;26.924;2023-03-23T05:13:19;34.00;;;22.17;;
37855;SDS011;23694;43.274;26.924;2023-03-23T05:15:45;34.13;;;22.43;;
37855;SDS011;23694;43.274;26.924;2023-03-23T05:18:12;38.37;;;23.63;;
37855;SDS011;23694;43.274;26.924;2023-03-23T05:20:40;34.03;;;22.63;;
37855;SDS011;23694;43.274;26.924;2023-03-23T05:23:07;35.70;;;23.67;;
37855;SDS011;23694;43.274;26.924;2023-03-23T05:25:35;38.27;;;23.63;;
37855;SDS011;23694;43.274;26.924;2023-03-23T05:28:09;33.77;;;22.20;;
37855;SDS011;23694;43.274;26.924;2023-03-23T05:30:36;32.17;;;21.80;;
37855;SDS011;23694;43.274;26.924;2023-03-23T05:33:03;32.30;;;21.77;;
37855;SDS011;23694;43.274;26.924;2023-03-23T05:35:30;30.40;;;21.23;;
37855;SDS011;23694;43.274;26.924;2023-03-23T05:37:56;30.27;;;20.83;;
37855;SDS011;23694;43.274;26.924;2023-03-23T05:40:23;30.73;;;21.47;;
37855;SDS011;23694;43.274;26.924;2023-03-23T05:42:51;36.43;;;21.67;;
37855;SDS011;23694;43.274;26.924;2023-03-23T05:45:18;29.20;;;20.40;;
37855;SDS011;23694;43.274;26.924;2023-03-23T05:47:44;34.23;;;23.13;;
37855;SDS011;23694;43.274;26.924;2023-03-23T05:50:11;35.77;;;22.97;;
37855;SDS011;23694;43.274;26.924;2023-03-23T05:52:38;33.97;;;22.80;;
37855;SDS011;23694;43.274;26.924;2023-03-23T05:55:05;32.33;;;21.93;;
37855;SDS011;23694;43.274;26.924;2023-03-23T05:57:33;31.47;;;21.23;;
37855;SDS011;23694;43.274;26.924;2023-03-23T05:59:59;34.13;;;22.40;;
37855;SDS011;23694;43.274;26.924;2023-03-23T06:02:27;36.07;;;23.30;;
37855;SDS011;23694;43.274;26.924;2023-03-23T06:04:54;32.13;;;21.10;;
37855;SDS011;23694;43.274;26.924;2023-03-23T06:07:23;35.33;;;23.70;;
37855;SDS011;23694;43.274;26.924;2023-03-23T06:09:51;35.23;;;23.87;;
37855;SDS011;23694;43.274;26.924;2023-03-23T06:12:17;39.37;;;26.03;;
37855;SDS011;23694;43.274;26.924;2023-03-23T06:14:48;40.80;;;26.07;;
37855;SDS011;23694;43.274;26.924;2023-03-23T06:17:14;34.70;;;23.70;;
37855;SDS011;23694;43.274;26.924;2023-03-23T06:19:43;68.50;;;43.77;;
37855;SDS011;23694;43.274;26.924;2023-03-23T06:22:12;41.47;;;25.83;;
37855;SDS011;23694;43.274;26.924;2023-03-23T06:24:39;37.07;;;25.07;;
37855;SDS011;23694;43.274;26.924;2023-03-23T06:27:05;39.40;;;26.40;;
37855;SDS011;23694;43.274;26.924;2023-03-23T06:29:31;47.53;;;37.67;;
37855;SDS011;23694;43.274;26.924;2023-03-23T06:31:58;38.07;;;27.53;;
37855;SDS011;23694;43.274;26.924;2023-03-23T06:34:27;37.27;;;26.60;;
37855;SDS011;23694;43.274;26.924;2023-03-23T06:36:55;37.30;;;25.60;;
37855;SDS011;23694;43.274;26.924;2023-03-23T06:39:22;34.13;;;24.47;;
37855;SDS011;23694;43.274;26.924;2023-03-23T06:41:48;32.23;;;22.13;;
37855;SDS011;23694;43.274;26.924;2023-03-23T06:44:14;33.13;;;22.40;;
37855;SDS011;23694;43.274;26.924;2023-03-23T06:46:41;34.07;;;23.27;;
37855;SDS011;23694;43.274;26.924;2023-03-23T06:49:08;36.93;;;25.90;;
37855;SDS011;23694;43.274;26.924;2023-03-23T06:51:34;36.57;;;23.07;;
37855;SDS011;23694;43.274;26.924;2023-03-23T06:54:00;30.70;;;22.50;;
37855;SDS011;23694;43.274;26.924;2023-03-23T06:56:26;30.13;;;21.53;;
37855;SDS011;23694;43.274;26.924;2023-03-23T06:58:52;31.50;;;21.20;;
37855;SDS011;23694;43.274;26.924;2023-03-23T07:01:19;36.10;;;24.90;;
37855;SDS011;23694;43.274;26.924;2023-03-23T07:03:45;35.53;;;24.10;;
37855;SDS011;23694;43.274;26.924;2023-03-23T07:06:11;34.13;;;24.00;;
37855;SDS011;23694;43.274;26.924;2023-03-23T07:08:37;37.70;;;25.80;;
37855;SDS011;23694;43.274;26.924;2023-03-23T07:11:04;36.33;;;23.30;;
37855;SDS011;23694;43.274;26.924;2023-03-23T07:13:31;35.20;;;22.60;;
37855;SDS011;23694;43.274;26.924;2023-03-23T07:15:57;35.00;;;25.13;;
37855;SDS011;23694;43.274;26.924;2023-03-23T07:18:23;35.47;;;24.30;;
37855;SDS011;23694;43.274;26.924;2023-03-23T07:20:50;37.10;;;22.33;;
37855;SDS011;23694;43.274;26.924;2023-03-23T07:23:17;31.67;;;22.80;;
37855;SDS011;23694;43.274;26.924;2023-03-23T07:25:44;34.40;;;22.60;;
37855;SDS011;23694;43.274;26.924;2023-03-23T07:28:12;34.53;;;21.73;;
37855;SDS011;23694;43.274;26.924;2023-03-23T07:30:38;31.93;;;21.83;;
37855;SDS011;23694;43.274;26.924;2023-03-23T07:33:05;32.00;;;21.70;;
37855;SDS011;23694;43.274;26.924;2023-03-23T07:35:32;33.17;;;22.00;;
37855;SDS011;23694;43.274;26.924;2023-03-23T07:37:58;35.17;;;22.90;;
37855;SDS011;23694;43.274;26.924;2023-03-23T07:40:25;32.03;;;21.63;;
37855;SDS011;23694;43.274;26.924;2023-03-23T07:42:56;35.30;;;23.83;;
37855;SDS011;23694;43.274;26.924;2023-03-23T07:45:23;36.77;;;24.13;;
37855;SDS011;23694;43.274;26.924;2023-03-23T07:47:49;38.23;;;25.27;;
37855;SDS011;23694;43.274;26.924;2023-03-23T07:50:15;34.53;;;24.13;;
37855;SDS011;23694;43.274;26.924;2023-03-23T07:52:42;35.47;;;23.37;;
37855;SDS011;23694;43.274;26.924;2023-03-23T07:55:09;36.47;;;24.67;;
37855;SDS011;23694;43.274;26.924;2023-03-23T07:57:43;38.50;;;25.17;;
37855;SDS011;23694;43.274;26.924;2023-03-23T08:00:10;39.70;;;25.33;;
37855;SDS011;23694;43.274;26.924;2023-03-23T08:02:46;42.93;;;26.60;;
37855;SDS011;23694;43.274;26.924;2023-03-23T08:05:12;38.63;;;23.90;;
37855;SDS011;23694;43.274;26.924;2023-03-23T08:07:39;38.57;;;25.37;;
37855;SDS011;23694;43.274;26.924;2023-03-23T08:10:06;33.80;;;23.13;;
37855;SDS011;23694;43.274;26.924;2023-03-23T08:12:36;36.47;;;24.00;;
37855;SDS011;23694;43.274;26.924;2023-03-23T08:15:03;39.50;;;25.83;;
37855;SDS011;23694;43.274;26.924;2023-03-23T08:17:32;42.37;;;27.83;;
37855;SDS011;23694;43.274;26.924;2023-03-23T08:20:00;34.47;;;22.90;;
37855;SDS011;23694;43.274;26.924;2023-03-23T08:22:39;32.20;;;19.80;;
37855;SDS011;23694;43.274;26.924;2023-03-23T08:25:06;34.30;;;21.33;;
37855;SDS011;23694;43.274;26.924;2023-03-23T08:27:34;30.27;;;20.07;;
37855;SDS011;23694;43.274;26.924;2023-03-23T08:30:00;31.90;;;21.37;;
37855;SDS011;23694;43.274;26.924;2023-03-23T08:32:26;30.33;;;19.77;;
37855;SDS011;23694;43.274;26.924;2023-03-23T08:34:52;29.93;;;18.90;;
37855;SDS011;23694;43.274;26.924;2023-03-23T08:37:19;28.27;;;18.83;;
37855;SDS011;23694;43.274;26.924;2023-03-23T08:39:45;28.63;;;18.70;;
37855;SDS011;23694;43.274;26.924;2023-03-23T08:42:11;26.03;;;19.03;;
37855;SDS011;23694;43.274;26.924;2023-03-23T08:44:37;31.00;;;19.73;;
37855;SDS011;23694;43.274;26.924;2023-03-23T08:47:04;30.43;;;20.03;;
37855;SDS011;23694;43.274;26.924;2023-03-23T08:49:31;29.30;;;18.70;;
37855;SDS011;23694;43.274;26.924;2023-03-23T08:51:59;25.80;;;17.33;;
37855;SDS011;23694;43.274;26.924;2023-03-23T08:54:25;26.27;;;16.57;;
37855;SDS011;23694;43.274;26.924;2023-03-23T08:56:52;24.23;;;16.90;;
37855;SDS011;23694;43.274;26.924;2023-03-23T08:59:18;23.07;;;16.83;;
37855;SDS011;23694;43.274;26.924;2023-03-23T09:01:44;23.10;;;16.13;;
37855;SDS011;23694;43.274;26.924;2023-03-23T09:04:11;24.53;;;16.20;;
37855;SDS011;23694;43.274;26.924;2023-03-23T09:06:37;19.90;;;14.53;;
37855;SDS011;23694;43.274;26.924;2023-03-23T09:09:03;18.87;;;12.97;;
37855;SDS011;23694;43.274;26.924;2023-03-23T09:11:35;17.73;;;12.50;;
37855;SDS011;23694;43.274;26.924;2023-03-23T09:14:02;17.63;;;11.90;;
37855;SDS011;23694;43.274;26.924;2023-03-23T09:16:29;26.07;;;15.07;;
37855;SDS011;23694;43.274;26.924;2023-03-23T09:18:56;21.83;;;14.50;;
37855;SDS011;23694;43.274;26.924;2023-03-23T09:21:24;20.57;;;14.53;;
37855;SDS011;23694;43.274;26.924;2023-03-23T09:23:51;18.23;;;12.63;;
37855;SDS011;23694;43.274;26.924;2023-03-23T09:26:18;20.70;;;13.73;;
37855;SDS011;23694;43.274;26.924;2023-03-23T09:28:44;19.30;;;13.30;;
37855;SDS011;23694;43.274;26.924;2023-03-23T09:31:11;19.03;;;13.60;;
37855;SDS011;23694;43.274;26.924;2023-03-23T09:33:38;18.93;;;13.50;;
37855;SDS011;23694;43.274;26.924;2023-03-23T09:36:04;18.33;;;13.40;;
37855;SDS011;23694;43.274;26.924;2023-03-23T09:38:33;20.17;;;14.13;;
37855;SDS011;23694;43.274;26.924;2023-03-23T09:43:41;17.60;;;12.87;;
37855;SDS011;23694;43.274;26.924;2023-03-23T09:49:05;18.63;;;13.40;;
37855;SDS011;23694;43.274;26.924;2023-03-23T09:51:45;19.10;;;13.53;;
37855;SDS011;23694;43.274;26.924;2023-03-23T09:56:51;22.93;;;14.40;;
37855;SDS011;23694;43.274;26.924;2023-03-23T10:01:59;25.27;;;15.43;;
37855;SDS011;23694;43.274;26.924;2023-03-23T10:04:49;19.67;;;13.87;;
37855;SDS011;23694;43.274;26.924;2023-03-23T10:07:18;19.53;;;14.60;;
37855;SDS011;23694;43.274;26.924;2023-03-23T10:09:47;21.27;;;14.50;;
37855;SDS011;23694;43.274;26.924;2023-03-23T10:25:51;21.40;;;14.87;;
37855;SDS011;23694;43.274;26.924;2023-03-23T10:28:32;21.83;;;14.30;;
37855;SDS011;23694;43.274;26.924;2023-03-23T10:31:01;19.47;;;13.80;;
37855;SDS011;23694;43.274;26.924;2023-03-23T10:33:37;21.17;;;14.67;;
37855;SDS011;23694;43.274;26.924;2023-03-23T10:36:10;32.23;;;16.57;;
37855;SDS011;23694;43.274;26.924;2023-03-23T10:39:03;24.00;;;15.27;;
37855;SDS011;23694;43.274;26.924;2023-03-23T10:41:43;21.23;;;15.00;;
37855;SDS011;23694;43.274;26.924;2023-03-23T10:44:14;22.83;;;15.57;;
37855;SDS011;23694;43.274;26.924;2023-03-23T10:46:59;22.67;;;16.37;;
37855;SDS011;23694;43.274;26.924;2023-03-23T10:49:28;20.23;;;14.30;;
37855;SDS011;23694;43.274;26.924;2023-03-23T10:52:20;25.20;;;15.53;;
37855;SDS011;23694;43.274;26.924;2023-03-23T10:57:29;19.17;;;13.83;;
37855;SDS011;23694;43.274;26.924;2023-03-23T11:02:41;25.23;;;15.43;;
37855;SDS011;23694;43.274;26.924;2023-03-23T11:05:19;23.37;;;15.33;;
37855;SDS011;23694;43.274;26.924;2023-03-23T11:07:49;20.13;;;14.07;;
37855;SDS011;23694;43.274;26.924;2023-03-23T11:10:22;19.90;;;14.43;;
37855;SDS011;23694;43.274;26.924;2023-03-23T11:12:51;19.40;;;14.13;;
37855;SDS011;23694;43.274;26.924;2023-03-23T11:15:29;22.10;;;14.33;;
37855;SDS011;23694;43.274;26.924;2023-03-23T11:18:09;23.70;;;14.20;;
37855;SDS011;23694;43.274;26.924;2023-03-23T11:20:45;17.47;;;12.87;;
37855;SDS011;23694;43.274;26.924;2023-03-23T11:23:21;17.90;;;13.77;;
37855;SDS011;23694;43.274;26.924;2023-03-23T11:25:51;19.83;;;13.17;;
37855;SDS011;23694;43.274;26.924;2023-03-23T11:28:36;17.23;;;13.47;;
37855;SDS011;23694;43.274;26.924;2023-03-23T11:31:07;21.23;;;13.73;;
37855;SDS011;23694;43.274;26.924;2023-03-23T11:33:38;21.97;;;14.70;;
37855;SDS011;23694;43.274;26.924;2023-03-23T11:36:14;19.90;;;15.23;;
37855;SDS011;23694;43.274;26.924;2023-03-23T11:38:41;20.10;;;14.30;;
37855;SDS011;23694;43.274;26.924;2023-03-23T11:41:16;19.20;;;12.70;;
37855;SDS011;23694;43.274;26.924;2023-03-23T11:43:45;17.13;;;14.07;;
37855;SDS011;23694;43.274;26.924;2023-03-23T11:46:18;31.83;;;16.43;;
37855;SDS011;23694;43.274;26.924;2023-03-23T11:48:54;29.50;;;14.67;;
37855;SDS011;23694;43.274;26.924;2023-03-23T11:51:30;23.33;;;14.23;;
37855;SDS011;23694;43.274;26.924;2023-03-23T11:54:16;19.93;;;14.13;;
37855;SDS011;23694;43.274;26.924;2023-03-23T11:56:56;20.90;;;14.33;;
37855;SDS011;23694;43.274;26.924;2023-03-23T11:59:29;19.73;;;14.00;;
37855;SDS011;23694;43.274;26.924;2023-03-23T12:08:34;21.40;;;14.70;;
37855;SDS011;23694;43.274;26.924;2023-03-23T12:10:46;25.00;;;15.50;;
37855;SDS011;23694;43.274;26.924;2023-03-23T12:24:31;24.10;;;14.00;;
37855;SDS011;23694;43.274;26.924;2023-03-23T12:27:17;22.03;;;14.17;;
37855;SDS011;23694;43.274;26.924;2023-03-23T12:35:48;23.07;;;15.63;;
37855;SDS011;23694;43.274;26.924;2023-03-23T12:44:14;20.53;;;14.67;;
37855;SDS011;23694;43.274;26.924;2023-03-23T12:49:42;19.83;;;14.77;;
37855;SDS011;23694;43.274;26.924;2023-03-23T12:52:27;23.20;;;14.87;;
37855;SDS011;23694;43.274;26.924;2023-03-23T12:58:19;22.13;;;15.20;;
37855;SDS011;23694;43.274;26.924;2023-03-23T13:03:32;25.40;;;16.70;;
37855;SDS011;23694;43.274;26.924;2023-03-23T13:06:07;22.27;;;15.60;;
37855;SDS011;23694;43.274;26.924;2023-03-23T13:08:37;24.08;;;16.45;;
37855;SDS011;23694;43.274;26.924;2023-03-23T13:11:10;25.63;;;15.20;;
37855;SDS011;23694;43.274;26.924;2023-03-23T13:13:51;26.83;;;16.90;;
37855;SDS011;23694;43.274;26.924;2023-03-23T13:24:51;25.30;;;18.10;;
37855;SDS011;23694;43.274;26.924;2023-03-23T13:27:23;23.00;;;17.47;;
37855;SDS011;23694;43.274;26.924;2023-03-23T13:29:53;24.23;;;17.57;;
37855;SDS011;23694;43.274;26.924;2023-03-23T13:32:35;23.90;;;17.03;;
37855;SDS011;23694;43.274;26.924;2023-03-23T13:35:04;30.93;;;17.40;;
37855;SDS011;23694;43.274;26.924;2023-03-23T13:37:41;30.73;;;17.30;;
37855;SDS011;23694;43.274;26.924;2023-03-23T13:42:47;25.33;;;18.27;;
37855;SDS011;23694;43.274;26.924;2023-03-23T13:45:35;26.13;;;19.33;;
37855;SDS011;23694;43.274;26.924;2023-03-23T13:48:03;27.47;;;18.80;;
37855;SDS011;23694;43.274;26.924;2023-03-23T13:50:35;24.90;;;16.43;;
37855;SDS011;23694;43.274;26.924;2023-03-23T13:56:13;26.07;;;18.83;;
37855;SDS011;23694;43.274;26.924;2023-03-23T13:58:52;32.17;;;19.13;;
37855;SDS011;23694;43.274;26.924;2023-03-23T14:01:49;26.70;;;19.80;;
37855;SDS011;23694;43.274;26.924;2023-03-23T14:04:17;31.07;;;19.60;;
37855;SDS011;23694;43.274;26.924;2023-03-23T14:06:48;31.90;;;21.10;;
37855;SDS011;23694;43.274;26.924;2023-03-23T14:09:17;32.67;;;22.02;;
37855;SDS011;23694;43.274;26.924;2023-03-23T14:11:48;31.80;;;18.57;;
37855;SDS011;23694;43.274;26.924;2023-03-23T14:14:39;29.17;;;20.63;;
37855;SDS011;23694;43.274;26.924;2023-03-23T14:19:52;29.83;;;20.13;;
37855;SDS011;23694;43.274;26.924;2023-03-23T14:22:27;29.90;;;20.00;;
37855;SDS011;23694;43.274;26.924;2023-03-23T14:24:59;28.73;;;19.00;;
37855;SDS011;23694;43.274;26.924;2023-03-23T14:27:30;26.85;;;18.20;;
37855;SDS011;23694;43.274;26.924;2023-03-23T14:30:00;25.67;;;18.73;;
37855;SDS011;23694;43.274;26.924;2023-03-23T14:32:29;28.60;;;18.98;;
37855;SDS011;23694;43.274;26.924;2023-03-23T14:34:58;33.37;;;20.37;;
37855;SDS011;23694;43.274;26.924;2023-03-23T14:37:26;46.23;;;33.43;;
37855;SDS011;23694;43.274;26.924;2023-03-23T14:39:53;55.20;;;41.53;;
37855;SDS011;23694;43.274;26.924;2023-03-23T14:42:29;33.40;;;24.80;;
37855;SDS011;23694;43.274;26.924;2023-03-23T14:44:56;42.13;;;29.30;;
37855;SDS011;23694;43.274;26.924;2023-03-23T14:47:26;27.67;;;18.90;;
37855;SDS011;23694;43.274;26.924;2023-03-23T14:49:59;24.00;;;17.90;;
37855;SDS011;23694;43.274;26.924;2023-03-23T14:52:32;63.77;;;44.57;;
37855;SDS011;23694;43.274;26.924;2023-03-23T14:55:19;58.90;;;40.03;;
37855;SDS011;23694;43.274;26.924;2023-03-23T14:57:47;33.20;;;21.33;;
37855;SDS011;23694;43.274;26.924;2023-03-23T15:00:16;31.00;;;21.23;;
37855;SDS011;23694;43.274;26.924;2023-03-23T15:02:46;31.43;;;19.83;;
37855;SDS011;23694;43.274;26.924;2023-03-23T15:05:19;29.52;;;19.55;;
37855;SDS011;23694;43.274;26.924;2023-03-23T15:07:56;28.30;;;19.37;;
37855;SDS011;23694;43.274;26.924;2023-03-23T15:10:26;35.08;;;25.77;;
37855;SDS011;23694;43.274;26.924;2023-03-23T15:12:52;30.13;;;20.00;;
37855;SDS011;23694;43.274;26.924;2023-03-23T15:17:52;33.13;;;21.33;;
37855;SDS011;23694;43.274;26.924;2023-03-23T15:20:26;31.90;;;22.63;;
37855;SDS011;23694;43.274;26.924;2023-03-23T15:22:54;37.13;;;25.10;;
37855;SDS011;23694;43.274;26.924;2023-03-23T15:25:29;26.57;;;19.40;;
37855;SDS011;23694;43.274;26.924;2023-03-23T15:27:57;30.33;;;20.13;;
37855;SDS011;23694;43.274;26.924;2023-03-23T15:30:35;34.43;;;22.47;;
37855;SDS011;23694;43.274;26.924;2023-03-23T15:33:11;31.07;;;21.57;;
37855;SDS011;23694;43.274;26.924;2023-03-23T15:35:48;31.30;;;21.00;;
37855;SDS011;23694;43.274;26.924;2023-03-23T15:40:58;38.47;;;24.87;;
37855;SDS011;23694;43.274;26.924;2023-03-23T15:43:33;31.93;;;24.20;;
37855;SDS011;23694;43.274;26.924;2023-03-23T15:46:22;45.50;;;29.33;;
37855;SDS011;23694;43.274;26.924;2023-03-23T15:51:15;35.40;;;26.60;;
37855;SDS011;23694;43.274;26.924;2023-03-23T15:53:42;34.73;;;23.50;;
37855;SDS011;23694;43.274;26.924;2023-03-23T15:56:09;33.67;;;22.37;;
37855;SDS011;23694;43.274;26.924;2023-03-23T15:58:37;31.97;;;21.53;;
37855;SDS011;23694;43.274;26.924;2023-03-23T16:03:59;35.20;;;21.03;;
37855;SDS011;23694;43.274;26.924;2023-03-23T16:06:30;30.97;;;20.20;;
37855;SDS011;23694;43.274;26.924;2023-03-23T16:08:58;30.03;;;20.20;;
37855;SDS011;23694;43.274;26.924;2023-03-23T16:11:26;38.43;;;22.67;;
37855;SDS011;23694;43.274;26.924;2023-03-23T16:13:54;42.63;;;24.00;;
37855;SDS011;23694;43.274;26.924;2023-03-23T16:16:21;38.87;;;25.00;;
37855;SDS011;23694;43.274;26.924;2023-03-23T16:18:48;44.60;;;27.23;;
37855;SDS011;23694;43.274;26.924;2023-03-23T16:21:14;44.70;;;26.20;;
37855;SDS011;23694;43.274;26.924;2023-03-23T16:23:40;47.50;;;28.50;;
37855;SDS011;23694;43.274;26.924;2023-03-23T16:26:09;46.27;;;26.93;;
37855;SDS011;23694;43.274;26.924;2023-03-23T16:28:35;42.27;;;25.43;;
37855;SDS011;23694;43.274;26.924;2023-03-23T16:31:02;37.17;;;26.30;;